createdAt,value
2018-08-20T00:00:27.073Z,84.69
2018-08-20T00:03:37.404Z,85.39
2018-08-20T00:06:57.599Z,85.35
2018-08-20T00:10:02.107Z,85.96
2018-08-20T00:13:06.599Z,85.82
2018-08-20T00:16:11.098Z,86.53
2018-08-20T00:19:15.515Z,86.74
2018-08-20T00:22:20.410Z,86.71
2018-08-20T00:25:25.012Z,86.90
2018-08-20T00:28:30.209Z,86.33
2018-08-20T00:31:35.489Z,86.87
2018-08-20T00:34:42.487Z,86.48
2018-08-20T00:37:50.619Z,87.47
2018-08-20T00:40:55.071Z,86.92
2018-08-20T00:44:00.197Z,87.25
2018-08-20T00:47:04.601Z,87.55
2018-08-20T00:50:10.642Z,88.74
2018-08-20T00:53:15.162Z,88.73
2018-08-20T00:56:20.708Z,89.18
2018-08-20T00:59:25.213Z,89.19
2018-08-20T01:02:31.131Z,89.25
2018-08-20T01:05:36.109Z,86.11
2018-08-20T01:08:40.634Z,86.92
2018-08-20T01:11:45.649Z,87.50
2018-08-20T01:14:50.794Z,88.03
2018-08-20T01:17:56.954Z,88.89
2018-08-20T01:21:01.510Z,89.22
2018-08-20T01:24:06.018Z,88.92
2018-08-20T01:27:15.503Z,89.56
2018-08-20T01:30:20.234Z,89.26
2018-08-20T01:33:24.757Z,89.14
2018-08-20T01:36:29.459Z,90.05
2018-08-20T01:39:33.829Z,89.80
2018-08-20T01:42:38.233Z,89.40
2018-08-20T01:45:42.647Z,88.34
2018-08-20T01:48:47.147Z,88.18
2018-08-20T01:51:51.745Z,89.00
2018-08-20T01:54:56.164Z,89.46
2018-08-20T01:58:00.990Z,89.26
2018-08-20T02:01:30.355Z,90.35
2018-08-20T02:04:34.759Z,89.08
2018-08-20T02:07:39.235Z,89.92
2018-08-20T02:10:43.695Z,90.85
2018-08-20T02:13:48.079Z,91.17
2018-08-20T02:16:52.481Z,91.58
2018-08-20T02:19:57.079Z,92.74
2018-08-20T02:23:01.492Z,92.58
2018-08-20T02:26:06.209Z,92.53
2018-08-20T02:29:10.640Z,92.74
2018-08-20T02:32:15.070Z,93.17
2018-08-20T02:35:19.453Z,93.47
2018-08-20T02:38:23.864Z,92.95
2018-08-20T02:41:28.274Z,93.74
2018-08-20T02:44:32.700Z,92.26
2018-08-20T02:47:37.731Z,91.88
2018-08-20T02:50:42.205Z,91.46
2018-08-20T02:53:46.617Z,91.42
2018-08-20T02:56:51.069Z,91.97
2018-08-20T02:59:55.553Z,92.58
2018-08-20T03:03:03.142Z,93.46
2018-08-20T03:06:07.566Z,93.25
2018-08-20T03:09:13.736Z,93.30
2018-08-20T03:12:18.313Z,93.75
2018-08-20T03:15:22.732Z,93.83
2018-08-20T03:18:27.202Z,94.21
2018-08-20T03:21:32.169Z,94.70
2018-08-20T03:24:36.724Z,95.12
2018-08-20T03:27:41.439Z,94.77
2018-08-20T03:30:45.977Z,94.04
2018-08-20T03:33:50.674Z,94.04
2018-08-20T03:36:55.457Z,94.53
2018-08-20T03:40:00.014Z,94.90
2018-08-20T03:43:04.418Z,95.70
2018-08-20T03:46:09.414Z,95.62
2018-08-20T03:49:13.846Z,95.69
2018-08-20T03:52:18.338Z,95.24
2018-08-20T03:55:23.447Z,95.66
2018-08-20T03:58:27.962Z,95.79
2018-08-20T04:01:32.382Z,95.63
2018-08-20T04:04:37.031Z,95.26
2018-08-20T04:07:41.388Z,95.38
2018-08-20T04:10:46.119Z,94.74
2018-08-20T04:13:50.697Z,94.68
2018-08-20T04:16:56.275Z,94.31
2018-08-20T04:20:02.277Z,94.21
2018-08-20T04:23:06.830Z,92.75
2018-08-20T04:26:11.317Z,92.50
2018-08-20T04:29:15.851Z,92.66
2018-08-20T04:32:20.737Z,91.90
2018-08-20T04:35:25.241Z,91.89
2018-08-20T04:38:29.702Z,92.18
2018-08-20T04:41:35.656Z,92.85
2018-08-20T04:44:40.436Z,92.72
2018-08-20T04:47:44.958Z,92.12
2018-08-20T04:50:49.704Z,91.82
2018-08-20T04:53:54.377Z,91.03
2018-08-20T04:56:59.165Z,90.12
2018-08-20T05:00:03.753Z,90.28
2018-08-20T05:03:11.990Z,89.73
2018-08-20T05:06:16.677Z,89.26
2018-08-20T05:09:21.204Z,88.49
2018-08-20T05:12:25.992Z,88.32
2018-08-20T05:15:30.404Z,87.20
2018-08-20T05:18:34.776Z,86.49
2018-08-20T05:21:39.511Z,85.99
2018-08-20T05:24:44.660Z,85.62
2018-08-20T05:27:49.092Z,85.49
2018-08-20T05:30:53.770Z,84.04
2018-08-20T05:33:58.921Z,84.27
2018-08-20T05:37:03.566Z,83.40
2018-08-20T05:40:08.080Z,82.59
2018-08-20T05:43:12.975Z,81.87
2018-08-20T05:46:17.448Z,81.58
2018-08-20T05:49:22.042Z,80.60
2018-08-20T05:52:26.685Z,79.77
2018-08-20T05:55:32.127Z,78.48
2018-08-20T05:58:36.497Z,78.50
2018-08-20T06:01:41.079Z,75.98
2018-08-20T06:04:45.705Z,69.83
2018-08-20T06:07:50.170Z,63.61
2018-08-20T06:10:54.495Z,59.20
2018-08-20T06:13:58.882Z,55.24
2018-08-20T06:17:03.369Z,52.28
2018-08-20T06:20:16.387Z,49.92
2018-08-20T06:23:20.764Z,48.67
2018-08-20T06:26:25.927Z,48.46
2018-08-20T06:29:30.351Z,46.90
2018-08-20T06:32:35.115Z,46.53
2018-08-20T06:35:40.380Z,44.73
2018-08-20T06:38:44.732Z,45.31
2018-08-20T06:41:49.111Z,46.20
2018-08-20T06:44:53.701Z,44.07
2018-08-20T06:47:58.205Z,43.92
2018-08-20T06:51:02.658Z,44.08
2018-08-20T06:54:07.421Z,42.89
2018-08-20T06:57:11.833Z,41.83
2018-08-20T07:00:16.467Z,43.63
2018-08-20T07:03:20.957Z,41.02
2018-08-20T07:06:25.632Z,41.79
2018-08-20T07:09:30.121Z,41.82
2018-08-20T07:12:34.652Z,41.10
2018-08-20T07:15:39.904Z,38.79
2018-08-20T07:18:44.642Z,40.54
2018-08-20T07:21:49.547Z,37.68
2018-08-20T07:24:54.246Z,39.49
2018-08-20T07:27:58.705Z,38.67
2018-08-20T07:31:03.414Z,39.71
2018-08-20T07:34:07.910Z,39.04
2018-08-20T07:37:19.126Z,38.87
2018-08-20T07:40:23.460Z,38.13
2018-08-20T07:43:28.401Z,38.26
2018-08-20T07:46:33.214Z,42.60
2018-08-20T07:49:37.619Z,41.50
2018-08-20T07:52:41.977Z,39.79
2018-08-20T07:55:46.573Z,39.93
2018-08-20T07:58:50.873Z,39.01
2018-08-20T08:01:55.602Z,40.61
2018-08-20T08:05:00.049Z,42.98
2018-08-20T08:08:04.639Z,46.99
2018-08-20T08:11:09.092Z,46.31
2018-08-20T08:14:14.071Z,43.70
2018-08-20T08:17:18.468Z,44.45
2018-08-20T08:20:23.209Z,47.67
2018-08-20T08:23:27.653Z,47.38
2018-08-20T08:26:33.822Z,45.74
2018-08-20T08:29:38.317Z,44.44
2018-08-20T08:32:42.745Z,43.99
2018-08-20T08:35:47.184Z,43.45
2018-08-20T08:38:51.909Z,43.90
2018-08-20T08:41:56.549Z,43.06
2018-08-20T08:45:01.035Z,41.39
2018-08-20T08:48:06.633Z,42.39
2018-08-20T08:51:10.981Z,42.46
2018-08-20T08:54:15.568Z,42.60
2018-08-20T08:57:20.337Z,43.28
2018-08-20T09:00:24.812Z,42.25
2018-08-20T09:03:31.654Z,43.79
2018-08-20T09:06:36.408Z,44.38
2018-08-20T09:09:40.904Z,44.91
2018-08-20T09:12:45.298Z,43.23
2018-08-20T09:15:50.174Z,44.17
2018-08-20T09:18:54.632Z,43.59
2018-08-20T09:21:59.093Z,40.99
2018-08-20T09:25:03.625Z,42.87
2018-08-20T09:28:08.230Z,42.72
2018-08-20T09:31:12.660Z,43.45
2018-08-20T09:34:17.785Z,42.86
2018-08-20T09:37:22.346Z,40.08
2018-08-20T09:40:27.265Z,40.69
2018-08-20T09:43:31.793Z,41.97
2018-08-20T09:46:36.313Z,40.47
2018-08-20T09:49:41.373Z,40.56
2018-08-20T09:52:46.568Z,42.29
2018-08-20T09:55:51.262Z,43.31
2018-08-20T09:58:56.244Z,40.53
2018-08-20T10:02:00.957Z,42.16
2018-08-20T10:05:05.856Z,40.90
2018-08-20T10:08:10.707Z,39.42
2018-08-20T10:11:15.227Z,39.23
2018-08-20T10:14:19.972Z,39.37
2018-08-20T10:17:24.800Z,38.53
2018-08-20T10:20:29.253Z,39.10
2018-08-20T10:23:33.973Z,39.60
2018-08-20T10:26:38.744Z,40.74
2018-08-20T10:29:43.921Z,41.88
2018-08-20T10:32:48.368Z,40.27
2018-08-20T10:35:54.161Z,40.32
2018-08-20T10:38:58.604Z,40.22
2018-08-20T10:42:02.972Z,40.21
2018-08-20T10:45:16.330Z,40.84
2018-08-20T10:48:21.948Z,43.66
2018-08-20T10:51:26.613Z,40.13
2018-08-20T10:54:32.065Z,39.77
2018-08-20T10:57:36.688Z,40.77
2018-08-20T11:00:41.391Z,39.83
2018-08-20T11:03:48.657Z,39.93
2018-08-20T11:06:54.571Z,38.59
2018-08-20T11:10:00.120Z,39.85
2018-08-20T11:13:05.065Z,39.54
2018-08-20T11:16:09.456Z,39.65
2018-08-20T11:19:14.063Z,38.32
2018-08-20T11:22:18.770Z,38.54
2018-08-20T11:25:23.345Z,39.79
2018-08-20T11:28:28.027Z,38.43
2018-08-20T11:31:32.706Z,38.99
2018-08-20T11:34:38.058Z,39.81
2018-08-20T11:37:42.690Z,41.21
2018-08-20T11:40:47.456Z,40.94
2018-08-20T11:43:51.846Z,40.73
2018-08-20T11:46:56.889Z,39.83
2018-08-20T11:50:01.961Z,41.20
2018-08-20T11:53:07.120Z,40.11
2018-08-20T11:56:11.565Z,40.77
2018-08-20T11:59:15.972Z,41.02
2018-08-20T12:02:20.605Z,40.30
2018-08-20T12:05:25.089Z,40.02
2018-08-20T12:08:30.358Z,40.25
2018-08-20T12:11:34.917Z,39.04
2018-08-20T12:14:39.375Z,38.95
2018-08-20T12:17:43.883Z,41.45
2018-08-20T12:20:48.402Z,38.50
2018-08-20T12:23:52.760Z,38.46
2018-08-20T12:26:57.220Z,39.54
2018-08-20T12:30:01.746Z,39.71
2018-08-20T12:33:06.129Z,39.63
2018-08-20T12:36:10.536Z,39.46
2018-08-20T12:39:15.009Z,40.11
2018-08-20T12:42:19.893Z,38.80
2018-08-20T12:45:24.351Z,40.34
2018-08-20T12:48:29.888Z,39.30
2018-08-20T12:51:34.403Z,39.48
2018-08-20T12:54:38.842Z,37.84
2018-08-20T12:57:44.043Z,37.08
2018-08-20T13:00:48.453Z,37.33
2018-08-20T13:03:52.867Z,36.33
2018-08-20T13:06:57.245Z,38.85
2018-08-20T13:10:01.741Z,39.84
2018-08-20T13:13:06.207Z,37.88
2018-08-20T13:16:10.948Z,40.01
2018-08-20T13:19:15.295Z,38.96
2018-08-20T13:22:20.271Z,38.78
2018-08-20T13:25:24.913Z,39.11
2018-08-20T13:28:30.720Z,36.81
2018-08-20T13:31:35.372Z,37.25
2018-08-20T13:34:40.079Z,37.80
2018-08-20T13:37:44.811Z,37.69
2018-08-20T13:40:49.237Z,39.63
2018-08-20T13:43:54.451Z,37.90
2018-08-20T13:46:59.026Z,36.65
2018-08-20T13:50:12.603Z,37.39
2018-08-20T13:53:17.649Z,37.60
2018-08-20T13:56:22.162Z,38.81
2018-08-20T13:59:27.861Z,39.31
2018-08-20T14:02:32.342Z,39.07
2018-08-20T14:05:37.461Z,40.45
2018-08-20T14:08:42.092Z,38.22
2018-08-20T14:11:47.199Z,40.04
2018-08-20T14:14:51.642Z,38.84
2018-08-20T14:17:56.059Z,38.71
2018-08-20T14:21:09.365Z,38.16
2018-08-20T14:24:14.047Z,37.84
2018-08-20T14:27:18.479Z,38.48
2018-08-20T14:30:22.948Z,38.60
2018-08-20T14:33:27.769Z,37.62
2018-08-20T14:36:32.435Z,39.26
2018-08-20T14:39:37.042Z,40.11
2018-08-20T14:42:42.517Z,38.99
2018-08-20T14:45:52.181Z,39.11
2018-08-20T14:48:56.649Z,38.31
2018-08-20T14:52:01.642Z,38.65
2018-08-20T14:55:06.547Z,39.50
2018-08-20T14:58:11.453Z,39.71
2018-08-20T15:01:16.234Z,39.12
2018-08-20T15:04:21.113Z,38.55
2018-08-20T15:07:25.728Z,38.31
2018-08-20T15:10:30.230Z,37.50
2018-08-20T15:13:37.973Z,37.99
2018-08-20T15:16:42.488Z,37.82
2018-08-20T15:19:47.029Z,36.52
2018-08-20T15:22:52.633Z,37.19
2018-08-20T15:25:57.756Z,38.59
2018-08-20T15:29:02.588Z,38.24
2018-08-20T15:32:07.157Z,36.99
2018-08-20T15:35:11.730Z,37.15
2018-08-20T15:38:16.170Z,39.00
2018-08-20T15:41:20.914Z,39.05
2018-08-20T15:44:25.846Z,40.60
2018-08-20T15:47:30.586Z,39.31
2018-08-20T15:50:35.106Z,39.47
2018-08-20T15:53:39.734Z,38.46
2018-08-20T15:56:44.369Z,37.52
2018-08-20T15:59:50.092Z,39.16
2018-08-20T16:02:55.290Z,38.82
2018-08-20T16:06:01.072Z,39.59
2018-08-20T16:09:09.522Z,38.76
2018-08-20T16:12:14.650Z,39.92
2018-08-20T16:15:19.215Z,39.22
2018-08-20T16:18:23.666Z,38.65
2018-08-20T16:21:29.062Z,39.63
2018-08-20T16:24:34.081Z,38.99
2018-08-20T16:27:38.680Z,39.42
2018-08-20T16:30:43.125Z,38.31
2018-08-20T16:33:48.065Z,37.94
2018-08-20T16:36:53.613Z,38.78
2018-08-20T16:39:58.450Z,39.32
2018-08-20T16:43:04.233Z,40.74
2018-08-20T16:46:09.404Z,41.56
2018-08-20T16:49:14.154Z,39.65
2018-08-20T16:52:18.888Z,41.02
2018-08-20T16:55:23.310Z,42.32
2018-08-20T16:58:28.905Z,41.78
2018-08-20T17:01:35.300Z,39.93
2018-08-20T17:04:42.397Z,40.48
2018-08-20T17:07:47.553Z,41.98
2018-08-20T17:10:52.730Z,41.64
2018-08-20T17:13:57.770Z,41.90
2018-08-20T17:17:04.184Z,41.89
2018-08-20T17:20:10.778Z,42.23
2018-08-20T17:23:23.695Z,41.89
2018-08-20T17:26:28.322Z,42.68
2018-08-20T17:29:32.742Z,42.62
2018-08-20T17:32:37.782Z,42.93
2018-08-20T17:35:43.362Z,43.58
2018-08-20T17:38:48.316Z,43.23
2018-08-20T17:41:56.071Z,44.99
2018-08-20T17:45:01.764Z,46.15
2018-08-20T17:48:08.129Z,48.06
2018-08-20T17:51:15.685Z,48.07
2018-08-20T17:54:20.426Z,49.14
2018-08-20T17:57:25.623Z,48.71
2018-08-20T18:00:41.614Z,51.16
2018-08-20T18:03:46.161Z,51.80
2018-08-20T18:06:55.207Z,51.15
2018-08-20T18:09:59.836Z,52.03
2018-08-20T18:13:04.393Z,53.92
2018-08-20T18:16:11.770Z,54.77
2018-08-20T18:19:16.879Z,55.09
2018-08-20T18:22:21.639Z,54.94
2018-08-20T18:25:30.128Z,57.16
2018-08-20T18:28:45.896Z,57.57
2018-08-20T18:32:02.049Z,58.44
2018-08-20T18:35:07.429Z,58.91
2018-08-20T18:38:11.862Z,58.67
2018-08-20T18:41:16.679Z,58.82
2018-08-20T18:44:23.249Z,58.84
2018-08-20T18:47:27.832Z,59.12
2018-08-20T18:50:32.486Z,60.28
2018-08-20T18:53:37.411Z,61.59
2018-08-20T18:56:44.769Z,61.64
2018-08-20T18:59:49.787Z,60.96
2018-08-20T19:02:59.847Z,61.39
2018-08-20T19:06:05.904Z,61.47
2018-08-20T19:09:10.630Z,62.16
2018-08-20T19:12:15.567Z,63.08
2018-08-20T19:15:36.997Z,63.70
2018-08-20T19:18:41.897Z,63.97
2018-08-20T19:21:46.768Z,63.73
2018-08-20T19:24:51.253Z,64.57
2018-08-20T19:27:56.537Z,65.37
2018-08-20T19:31:01.318Z,64.88
2018-08-20T19:34:07.106Z,64.45
2018-08-20T19:37:12.313Z,65.05
2018-08-20T19:40:19.478Z,65.07
2018-08-20T19:43:25.067Z,65.05
2018-08-20T19:46:34.868Z,63.09
2018-08-20T19:49:39.565Z,64.39
2018-08-20T19:53:20.432Z,65.11
2018-08-20T19:56:25.442Z,65.27
2018-08-20T19:59:35.812Z,66.18
2018-08-20T20:02:44.037Z,67.60
2018-08-20T20:05:48.733Z,67.61
2018-08-20T20:08:53.475Z,67.52
2018-08-20T20:11:59.154Z,68.50
2018-08-20T20:15:04.799Z,68.52
2018-08-20T20:18:11.145Z,69.41
2018-08-20T20:21:17.031Z,69.58
2018-08-20T20:24:22.426Z,70.00
2018-08-20T20:27:27.145Z,70.85
2018-08-20T20:30:32.493Z,70.64
2018-08-20T20:33:37.830Z,70.77
2018-08-20T20:36:43.144Z,70.32
2018-08-20T20:40:02.591Z,72.47
2018-08-20T20:43:07.926Z,74.10
2018-08-20T20:46:13.298Z,75.00
2018-08-20T20:49:18.346Z,75.54
2018-08-20T20:52:23.742Z,75.70
2018-08-20T20:55:28.947Z,74.88
2018-08-20T20:58:39.045Z,76.51
2018-08-20T21:01:43.545Z,75.68
2018-08-20T21:04:48.745Z,76.40
2018-08-20T21:07:53.508Z,76.74
2018-08-20T21:10:59.114Z,76.30
2018-08-20T21:14:03.905Z,76.22
2018-08-20T21:17:08.344Z,75.93
2018-08-20T21:20:13.204Z,76.54
2018-08-20T21:23:17.849Z,76.70
2018-08-20T21:26:23.809Z,77.69
2018-08-20T21:29:28.532Z,77.91
2018-08-20T21:32:33.794Z,78.93
2018-08-20T21:35:38.656Z,78.71
2018-08-20T21:38:44.014Z,79.11
2018-08-20T21:41:48.698Z,79.11
2018-08-20T21:44:53.677Z,79.46
2018-08-20T21:47:58.559Z,79.54
2018-08-20T21:51:08.832Z,79.51
2018-08-20T21:54:14.254Z,80.35
2018-08-20T21:57:18.830Z,80.02
2018-08-20T22:00:24.777Z,80.66
2018-08-20T22:03:31.211Z,80.86
2018-08-20T22:06:35.641Z,81.42
2018-08-20T22:09:40.405Z,81.52
2018-08-20T22:12:45.607Z,82.01
2018-08-20T22:16:07.797Z,81.91
2018-08-20T22:19:12.635Z,82.21
2018-08-20T22:22:22.858Z,81.60
2018-08-20T22:25:27.858Z,82.32
2018-08-20T22:28:33.988Z,82.83
2018-08-20T22:31:42.722Z,83.72
2018-08-20T22:34:47.293Z,82.58
2018-08-20T22:37:52.428Z,83.24
2018-08-20T22:40:56.897Z,84.86
2018-08-20T22:44:01.496Z,85.46
2018-08-20T22:47:05.958Z,85.70
2018-08-20T22:50:10.876Z,85.91
2018-08-20T22:53:15.382Z,86.21
2018-08-20T22:56:25.930Z,86.23
2018-08-20T22:59:30.493Z,85.64
2018-08-20T23:02:34.933Z,86.22
2018-08-20T23:05:39.464Z,86.11
2018-08-20T23:08:44.150Z,84.26
2018-08-20T23:11:48.901Z,85.06
2018-08-20T23:14:53.359Z,85.00
2018-08-20T23:17:57.725Z,84.68
2018-08-20T23:21:02.228Z,85.12
2018-08-20T23:24:07.456Z,84.82
2018-08-20T23:27:12.680Z,85.22
2018-08-20T23:30:17.127Z,85.54
2018-08-20T23:33:21.675Z,85.56
2018-08-20T23:36:26.044Z,85.59
2018-08-20T23:39:30.445Z,85.54
2018-08-20T23:42:34.985Z,85.19
2018-08-20T23:45:39.430Z,84.90
2018-08-20T23:48:44.107Z,84.50
2018-08-20T23:51:49.249Z,84.34
2018-08-20T23:54:53.650Z,84.68
2018-08-20T23:57:58.081Z,85.54
